Time;durP1;ratioP1;P1;durP2;ratioP2;P2;SDS_P1;SDS_P2;PMS_P1;PMS_P2;Temp;Humidity;BMP_temperature;BMP_pressure;BME280_temperature;BME280_humidity;BME280_pressure;Samples;Min_cycle;Max_cycle;Signal;HPM_P1;HPM_P2
2023/02/16 00:02:26;;;;;;;32.53;27.17;;;4.30;99.90;;;;;;2615090;54;20947;-74
2023/02/16 00:08:14;;;;;;;39.67;29.00;;;4.20;99.90;;;;;;2616249;54;20153;-73
2023/02/16 00:17:33;;;;;;;38.40;28.60;;;4.70;99.90;;;;;;2616411;54;20390;-73
2023/02/16 00:23:21;;;;;;;43.13;30.80;;;5.10;99.90;;;;;;2617035;39;20791;-72
2023/02/16 00:35:23;;;;;;;39.17;28.43;;;4.50;99.90;;;;;;2616357;46;20492;-72
2023/02/16 00:47:38;;;;;;;41.13;29.50;;;3.70;99.90;;;;;;2616510;54;20375;-72
2023/02/16 00:53:26;;;;;;;47.40;30.50;;;3.70;99.90;;;;;;2616412;54;20407;-72
2023/02/16 00:59:19;;;;;;;37.93;25.63;;;3.70;99.90;;;;;;2616233;54;20127;-73
2023/02/16 01:05:07;;;;;;;43.43;30.43;;;3.40;99.90;;;;;;2616309;54;20391;-72
2023/02/16 01:20:19;;;;;;;45.77;30.37;;;2.80;99.90;;;;;;2616291;54;20386;-72
2023/02/16 01:26:17;;;;;;;44.53;28.80;;;2.80;99.90;;;;;;2616159;54;20387;-72
2023/02/16 01:32:04;;;;;;;43.93;29.93;;;2.90;99.90;;;;;;2616371;54;20390;-72
2023/02/16 01:37:52;;;;;;;40.67;28.13;;;2.90;99.90;;;;;;2616071;54;21028;-72
2023/02/16 01:43:49;;;;;;;45.83;30.90;;;3.00;99.90;;;;;;2616852;39;20516;-72
2023/02/16 01:49:37;;;;;;;45.43;29.80;;;2.70;99.90;;;;;;2616391;54;20374;-72
2023/02/16 01:55:25;;;;;;;44.47;29.63;;;2.60;99.90;;;;;;2616476;54;20126;-73
2023/02/16 02:14:36;;;;;;;43.70;28.07;;;2.70;99.90;;;;;;2616089;54;20409;-72
2023/02/16 02:27:20;;;;;;;49.60;31.33;;;2.40;99.90;;;;;;2615887;54;20402;-72
2023/02/16 02:46:34;;;;;;;42.03;29.93;;;2.20;99.90;;;;;;2616128;54;20373;-73
2023/02/16 02:52:21;;;;;;;45.30;28.90;;;3.20;99.90;;;;;;2616312;54;20411;-72
2023/02/16 03:04:22;;;;;;;46.80;29.70;;;3.20;99.90;;;;;;2616144;54;20407;-74
2023/02/16 03:32:19;;;;;;;44.27;28.07;;;2.60;99.90;;;;;;2615473;54;20443;-70
2023/02/16 03:38:07;;;;;;;44.00;28.97;;;2.60;99.90;;;;;;2615184;54;20410;-70
2023/02/16 03:43:55;;;;;;;38.17;28.10;;;2.50;99.90;;;;;;2615472;54;20423;-70
2023/02/16 03:49:42;;;;;;;47.73;30.27;;;2.50;99.90;;;;;;2616210;39;20189;-71
2023/02/16 03:55:34;;;;;;;42.13;30.27;;;2.60;99.90;;;;;;2615536;54;20748;-71
2023/02/16 04:01:22;;;;;;;39.67;28.20;;;2.40;99.90;;;;;;2615496;54;20357;-70
2023/02/16 04:07:10;;;;;;;39.23;29.57;;;2.20;99.90;;;;;;2615345;54;20162;-70
2023/02/16 04:12:57;;;;;;;40.30;29.40;;;2.10;99.90;;;;;;2615458;54;20118;-70
2023/02/16 04:15:31;;;;;;;45.67;29.27;;;2.00;99.90;;;;;;2615213;39;20790;-70
2023/02/16 04:17:57;;;;;;;32.43;27.20;;;2.20;99.90;;;;;;2614654;54;20159;-70
2023/02/16 04:23:45;;;;;;;49.53;30.80;;;2.10;99.90;;;;;;2615202;54;20467;-70
2023/02/16 04:29:32;;;;;;;37.73;28.20;;;2.20;99.90;;;;;;2615210;54;20115;-69
2023/02/16 04:35:21;;;;;;;42.23;29.57;;;2.20;99.90;;;;;;2615638;39;20787;-71
2023/02/16 04:41:08;;;;;;;46.77;29.50;;;2.00;99.90;;;;;;2615818;39;20744;-71
2023/02/16 04:46:56;;;;;;;38.80;27.30;;;1.90;99.90;;;;;;2615062;54;20118;-71
2023/02/16 04:52:44;;;;;;;38.47;31.07;;;1.70;99.90;;;;;;2615171;54;20122;-72
2023/02/16 04:58:31;;;;;;;44.00;28.37;;;1.70;99.90;;;;;;2615148;39;20736;-71
2023/02/16 05:04:19;;;;;;;45.30;28.53;;;1.70;99.90;;;;;;2615366;54;20153;-70
2023/02/16 05:10:07;;;;;;;43.50;29.40;;;1.50;99.90;;;;;;2615099;54;20178;-70
2023/02/16 05:26:07;;;;;;;46.70;30.13;;;1.50;99.90;;;;;;2613732;54;20391;-70
2023/02/16 05:31:54;;;;;;;50.10;29.37;;;1.40;99.90;;;;;;2614073;39;20974;-70
2023/02/16 05:37:41;;;;;;;55.30;32.57;;;1.80;99.90;;;;;;2613825;39;20528;-69
2023/02/16 05:43:28;;;;;;;38.67;27.53;;;2.00;99.90;;;;;;2613789;54;20152;-70
2023/02/16 05:49:16;;;;;;;42.67;29.67;;;1.70;99.90;;;;;;2613424;54;20129;-71
2023/02/16 05:55:03;;;;;;;45.50;30.13;;;1.50;99.90;;;;;;2613771;54;20441;-72
2023/02/16 06:00:50;;;;;;;41.53;30.37;;;1.50;99.90;;;;;;2614941;54;20150;-70
2023/02/16 06:06:39;;;;;;;40.30;28.67;;;1.50;99.90;;;;;;2614838;54;20636;-69
2023/02/16 06:12:26;;;;;;;44.30;28.40;;;1.90;99.90;;;;;;2614950;54;20370;-71
2023/02/16 06:15:31;;;;;;;50.80;32.07;;;2.60;99.90;;;;;;2614918;54;20427;-71
2023/02/16 06:17:57;;;;;;;47.67;32.10;;;2.60;99.90;;;;;;2614792;54;20258;-70
2023/02/16 06:23:44;;;;;;;43.00;32.50;;;2.40;99.90;;;;;;2614794;54;20138;-70
2023/02/16 06:29:32;;;;;;;56.53;31.40;;;2.50;99.90;;;;;;2614925;54;20126;-71
2023/02/16 06:35:20;;;;;;;49.27;31.00;;;2.60;99.90;;;;;;2614784;54;20146;-70
2023/02/16 06:41:08;;;;;;;49.50;31.87;;;2.80;99.90;;;;;;2615078;54;20182;-70
2023/02/16 06:46:55;;;;;;;43.47;31.43;;;3.30;99.90;;;;;;2615150;47;20147;-71
2023/02/16 06:49:58;;;;;;;46.27;32.07;;;3.80;99.90;;;;;;2614184;54;20510;-71
2023/02/16 06:52:24;;;;;;;52.57;33.70;;;4.10;99.90;;;;;;2613846;51;20198;-70
2023/02/16 06:58:12;;;;;;;43.73;32.70;;;5.30;99.90;;;;;;2614752;54;20150;-70
2023/02/16 07:03:59;;;;;;;40.97;30.67;;;5.90;99.90;;;;;;2614936;54;20122;-70
2023/02/16 07:09:47;;;;;;;37.70;29.10;;;6.10;99.90;;;;;;2614889;54;20130;-71
2023/02/16 07:15:35;;;;;;;37.77;29.50;;;6.20;99.90;;;;;;2614397;54;20199;-70
2023/02/16 07:21:23;;;;;;;31.83;27.73;;;6.20;99.90;;;;;;2614735;54;20131;-70
2023/02/16 07:27:10;;;;;;;39.20;27.90;;;6.30;99.90;;;;;;2614450;54;20122;-70
2023/02/16 07:32:58;;;;;;;34.30;27.93;;;6.40;99.90;;;;;;2614871;54;20123;-70
2023/02/16 07:38:46;;;;;;;34.03;27.10;;;6.50;99.90;;;;;;2614566;54;20374;-70
2023/02/16 07:44:33;;;;;;;34.00;27.37;;;6.80;99.90;;;;;;2614549;54;20126;-70
2023/02/16 07:50:21;;;;;;;32.47;27.30;;;6.80;99.90;;;;;;2614603;54;20146;-71
2023/02/16 08:02:42;;;;;;;37.50;26.53;;;7.00;99.90;;;;;;2614699;54;20387;-69
2023/02/16 08:08:31;;;;;;;39.93;28.40;;;7.20;99.90;;;;;;2615531;54;20135;-70
2023/02/16 08:14:18;;;;;;;31.33;26.60;;;7.40;99.90;;;;;;2615378;54;20370;-70
2023/02/16 08:23:31;;;;;;;30.27;26.60;;;7.80;98.00;;;;;;2615346;54;20381;-70
2023/02/16 08:29:19;;;;;;;32.70;26.50;;;8.10;91.00;;;;;;2615106;54;20961;-69
2023/02/16 08:35:07;;;;;;;31.80;26.07;;;8.20;82.80;;;;;;2615302;54;20644;-70
2023/02/16 08:40:54;;;;;;;26.43;23.70;;;8.20;81.60;;;;;;2615215;54;20407;-70
2023/02/16 08:46:44;;;;;;;29.87;24.10;;;8.10;84.40;;;;;;2615112;54;20154;-70
2023/02/16 08:52:31;;;;;;;29.97;26.87;;;8.30;81.90;;;;;;2615102;54;20407;-70
2023/02/16 08:58:20;;;;;;;31.57;28.20;;;8.60;74.30;;;;;;2615266;54;20664;-70
2023/02/16 09:04:08;;;;;;;32.00;26.27;;;9.90;56.70;;;;;;2614964;54;20375;-71
2023/02/16 09:09:56;;;;;;;29.03;25.93;;;11.50;25.00;;;;;;2615678;39;20816;-71
2023/02/16 09:15:46;;;;;;;29.70;26.97;;;9.90;41.50;;;;;;2614969;54;20384;-70
2023/02/16 09:19:01;;;;;;;31.77;28.73;;;10.10;38.40;;;;;;2615212;54;20491;-70
2023/02/16 09:21:32;;;;;;;29.80;26.70;;;10.30;35.40;;;;;;2614947;54;20921;-70
2023/02/16 09:27:19;;;;;;;28.23;25.53;;;10.80;29.60;;;;;;2614892;54;20391;-71
2023/02/16 09:33:07;;;;;;;30.03;27.13;;;10.20;33.60;;;;;;2614906;54;20139;-70
2023/02/16 09:38:55;;;;;;;28.80;25.90;;;10.10;36.40;;;;;;2615395;54;20110;-69
2023/02/16 09:44:52;;;;;;;30.43;27.33;;;10.60;35.80;;;;;;2615115;54;20427;-69
2023/02/16 09:50:39;;;;;;;29.07;26.23;;;10.40;34.60;;;;;;2615121;54;20380;-70
2023/02/16 10:02:56;;;;;;;23.53;20.57;;;10.40;41.40;;;;;;2614867;54;20423;-70
2023/02/16 10:19:44;;;;;;;28.67;25.63;;;10.30;44.20;;;;;;2614895;54;20428;-70
2023/02/16 10:32:27;;;;;;;27.20;24.47;;;10.00;47.40;;;;;;2614862;54;21114;-69
2023/02/16 10:51:15;;;;;;;29.60;26.60;;;9.80;61.90;;;;;;2614647;54;20370;-69
2023/02/16 10:57:05;;;;;;;29.90;26.80;;;10.00;59.30;;;;;;2614893;54;20374;-71
2023/02/16 11:02:53;;;;;;;23.73;21.33;;;10.10;61.30;;;;;;2615026;39;20932;-71
2023/02/16 11:15:23;;;;;;;29.17;23.33;;;10.70;53.50;;;;;;2615322;39;20744;-70
2023/02/16 11:21:11;;;;;;;30.27;26.97;;;11.80;43.70;;;;;;2614935;47;20499;-70
2023/02/16 11:27:00;;;;;;;29.50;26.23;;;11.70;38.20;;;;;;2614430;54;20351;-70
2023/02/16 11:32:50;;;;;;;31.70;27.87;;;11.40;46.80;;;;;;2614542;54;20395;-70
2023/02/16 11:38:38;;;;;;;31.53;28.20;;;11.00;55.00;;;;;;2614873;54;20334;-70
2023/02/16 11:44:32;;;;;;;28.63;24.40;;;10.70;62.10;;;;;;2615352;54;20166;-69
2023/02/16 12:10:07;;;;;;;34.93;25.63;;;9.90;99.90;;;;;;2615500;54;20426;-69
2023/02/16 12:32:29;;;;;;;29.80;25.30;;;9.90;99.90;;;;;;2615417;54;20459;-71
2023/02/16 12:52:11;;;;;;;34.70;28.60;;;10.50;99.90;;;;;;2613511;54;20493;-71
2023/02/16 12:58:06;;;;;;;35.53;27.70;;;10.50;99.90;;;;;;2613669;54;20377;-70
2023/02/16 13:17:05;;;;;;;29.40;25.37;;;10.60;99.90;;;;;;2613170;54;20350;-71
2023/02/16 13:22:59;;;;;;;34.13;28.23;;;10.90;99.90;;;;;;2613217;54;20417;-70
2023/02/16 13:28:59;;;;;;;32.73;27.50;;;10.70;99.90;;;;;;2613473;54;20498;-71
2023/02/16 13:47:36;;;;;;;31.37;27.27;;;10.50;99.90;;;;;;2614961;54;20482;-69
2023/02/16 13:53:24;;;;;;;36.60;29.50;;;10.50;99.90;;;;;;2614914;54;20399;-70
2023/02/16 13:59:18;;;;;;;38.73;30.03;;;10.50;99.90;;;;;;2615468;54;20490;-72
2023/02/16 14:05:09;;;;;;;35.53;29.67;;;10.50;99.90;;;;;;2616695;54;20472;-71
2023/02/16 14:11:00;;;;;;;29.07;25.50;;;10.60;99.90;;;;;;2616480;54;20387;-72
2023/02/16 14:16:47;;;;;;;36.80;27.23;;;10.50;99.90;;;;;;2616250;54;20949;-72
2023/02/16 14:22:49;;;;;;;35.03;28.43;;;10.40;99.90;;;;;;2616175;54;20217;-72
2023/02/16 14:33:10;;;;;;;30.90;26.80;;;10.40;99.90;;;;;;2615162;54;20406;-72
2023/02/16 14:38:59;;;;;;;38.87;28.50;;;10.30;99.90;;;;;;2615001;54;20379;-72
2023/02/16 14:45:05;;;;;;;36.50;28.40;;;10.20;99.90;;;;;;2614903;54;20675;-71
2023/02/16 15:03:51;;;;;;;33.40;29.70;;;13.90;62.80;;;;;;2614982;54;20408;-71
2023/02/16 15:09:41;;;;;;;33.83;30.17;;;13.90;55.00;;;;;;2616180;54;20374;-72
2023/02/16 15:25:38;;;;;;;35.80;28.73;;;12.40;96.90;;;;;;2615538;54;20515;-72
2023/02/16 15:38:15;;;;;;;31.87;25.97;;;12.50;99.90;;;;;;2615805;54;20553;-71
2023/02/16 15:44:05;;;;;;;34.33;27.60;;;11.80;99.90;;;;;;2616167;46;20883;-71
2023/02/16 15:49:53;;;;;;;33.80;29.20;;;11.50;99.90;;;;;;2615593;54;20822;-72
2023/02/16 15:55:45;;;;;;;31.73;27.87;;;11.50;99.90;;;;;;2614926;54;20428;-70
2023/02/16 16:01:34;;;;;;;33.50;27.63;;;11.70;99.90;;;;;;2615766;54;20384;-71
2023/02/16 16:07:39;;;;;;;29.00;25.10;;;11.30;99.90;;;;;;2615503;54;20416;-71
2023/02/16 16:13:30;;;;;;;30.50;27.07;;;11.10;99.90;;;;;;2617342;39;20807;-72
2023/02/16 16:19:23;;;;;;;31.77;28.07;;;11.00;99.90;;;;;;2617025;54;20383;-71
2023/02/16 16:25:33;;;;;;;37.17;29.53;;;10.90;99.90;;;;;;2616438;54;20431;-71
2023/02/16 16:31:20;;;;;;;31.20;26.37;;;10.90;99.90;;;;;;2616754;54;20382;-72
2023/02/16 16:37:26;;;;;;;28.37;25.13;;;10.80;99.90;;;;;;2616545;54;20122;-72
2023/02/16 16:43:17;;;;;;;28.80;25.67;;;10.70;99.90;;;;;;2616834;54;20396;-72
2023/02/16 16:55:20;;;;;;;34.90;26.87;;;10.80;99.90;;;;;;2616760;54;20446;-72
2023/02/16 17:01:11;;;;;;;32.47;26.43;;;10.80;99.90;;;;;;2616796;54;20651;-72
2023/02/16 17:06:58;;;;;;;33.03;25.10;;;10.80;99.90;;;;;;2616598;54;20395;-72
2023/02/16 17:12:50;;;;;;;27.27;23.20;;;10.80;99.90;;;;;;2616847;54;20278;-71
2023/02/16 17:18:38;;;;;;;30.33;27.13;;;10.80;99.90;;;;;;2616845;54;20398;-71
2023/02/16 17:24:26;;;;;;;31.47;26.13;;;10.80;99.90;;;;;;2617079;54;20395;-72
2023/02/16 17:30:14;;;;;;;28.50;23.80;;;10.90;99.90;;;;;;2616834;54;20154;-72
2023/02/16 17:36:04;;;;;;;34.00;24.43;;;11.10;99.90;;;;;;2616492;54;20523;-71
2023/02/16 17:41:51;;;;;;;25.40;22.17;;;11.10;99.90;;;;;;2617245;39;20873;-73
2023/02/16 17:47:39;;;;;;;27.03;24.23;;;11.10;99.90;;;;;;2616892;54;20146;-73
2023/02/16 17:53:27;;;;;;;24.37;20.80;;;11.30;99.90;;;;;;2617594;39;20509;-72
2023/02/16 17:59:15;;;;;;;21.70;19.40;;;11.20;99.90;;;;;;2616597;54;20438;-72
2023/02/16 18:05:03;;;;;;;18.53;16.33;;;11.20;99.90;;;;;;2616757;54;20126;-72
2023/02/16 18:10:53;;;;;;;22.83;20.10;;;11.30;99.90;;;;;;2616430;54;20407;-72
2023/02/16 18:16:40;;;;;;;15.40;13.77;;;11.10;99.90;;;;;;2616542;54;20442;-73
2023/02/16 18:22:28;;;;;;;24.53;17.63;;;11.00;99.90;;;;;;2616797;54;20265;-73
2023/02/16 18:28:18;;;;;;;20.43;17.67;;;11.10;99.90;;;;;;2617404;39;20513;-71
2023/02/16 18:34:08;;;;;;;17.73;14.90;;;11.20;99.90;;;;;;2616825;54;20355;-72
2023/02/16 18:39:55;;;;;;;22.13;13.77;;;11.00;99.90;;;;;;2616500;54;20410;-73
2023/02/16 18:45:43;;;;;;;15.33;13.10;;;10.50;99.90;;;;;;2616344;54;20126;-74
2023/02/16 18:48:46;;;;;;;24.80;18.00;;;10.20;99.90;;;;;;2615499;54;20486;-74
2023/02/16 18:51:13;;;;;;;20.37;16.80;;;10.00;99.90;;;;;;2616250;54;20245;-73
2023/02/16 18:57:01;;;;;;;16.33;13.70;;;9.80;99.90;;;;;;2616137;54;20363;-73
2023/02/16 19:02:49;;;;;;;19.03;15.63;;;9.70;99.90;;;;;;2616209;54;20450;-72
2023/02/16 19:08:37;;;;;;;20.10;15.97;;;9.70;99.90;;;;;;2616151;54;20427;-73
2023/02/16 19:14:24;;;;;;;25.13;17.47;;;9.60;99.90;;;;;;2616164;54;20118;-73
2023/02/16 19:20:16;;;;;;;21.43;13.90;;;9.50;99.90;;;;;;2616277;54;20118;-74
2023/02/16 19:26:10;;;;;;;13.90;11.63;;;9.30;99.90;;;;;;2616200;54;20375;-73
2023/02/16 19:31:57;;;;;;;18.57;14.40;;;9.40;99.90;;;;;;2616255;54;20541;-73
2023/02/16 19:37:45;;;;;;;21.50;16.23;;;9.40;99.90;;;;;;2616072;54;20211;-72
2023/02/16 19:43:33;;;;;;;21.00;15.73;;;9.30;99.90;;;;;;2616140;54;20147;-74
2023/02/16 19:49:21;;;;;;;20.40;15.63;;;9.30;99.90;;;;;;2615663;54;20123;-73
2023/02/16 19:55:08;;;;;;;27.10;18.60;;;9.20;99.90;;;;;;2615635;54;20656;-73
2023/02/16 20:00:56;;;;;;;20.17;16.63;;;9.20;99.90;;;;;;2616401;54;20203;-73
2023/02/16 20:06:44;;;;;;;28.60;18.40;;;9.20;99.90;;;;;;2616519;54;20142;-71
2023/02/16 20:12:32;;;;;;;20.00;13.47;;;9.20;99.90;;;;;;2616691;54;20531;-73
2023/02/16 20:18:21;;;;;;;29.87;16.40;;;9.30;99.90;;;;;;2616430;54;20262;-73
2023/02/16 20:21:25;;;;;;;25.20;18.63;;;9.30;99.90;;;;;;2616574;54;20424;-73
2023/02/16 20:23:54;;;;;;;20.73;15.30;;;9.30;99.90;;;;;;2616516;54;21023;-74
2023/02/16 20:29:41;;;;;;;19.57;12.73;;;9.30;99.90;;;;;;2616467;54;20410;-73
2023/02/16 20:35:29;;;;;;;23.43;18.37;;;9.30;99.90;;;;;;2616603;54;20122;-75
2023/02/16 20:41:18;;;;;;;20.63;15.50;;;9.30;99.90;;;;;;2616477;54;20271;-75
2023/02/16 20:47:08;;;;;;;20.57;16.60;;;9.30;99.90;;;;;;2616316;54;20438;-73
2023/02/16 20:52:56;;;;;;;26.90;17.27;;;9.30;99.90;;;;;;2616797;54;20366;-74
2023/02/16 20:58:45;;;;;;;25.53;18.93;;;9.40;99.90;;;;;;2616346;54;20139;-72
2023/02/16 21:04:33;;;;;;;26.63;20.20;;;9.50;99.90;;;;;;2616439;54;20383;-74
2023/02/16 21:10:23;;;;;;;26.30;20.27;;;9.40;99.90;;;;;;2616252;54;20123;-73
2023/02/16 21:16:12;;;;;;;22.77;13.27;;;9.20;99.90;;;;;;2616718;39;20785;-73
2023/02/16 21:26:00;;;;;;;24.93;18.40;;;9.20;99.90;;;;;;2616417;54;20385;-74
2023/02/16 21:31:48;;;;;;;26.70;20.97;;;9.20;99.90;;;;;;2616232;54;20374;-73
2023/02/16 21:37:37;;;;;;;26.50;19.50;;;9.20;99.90;;;;;;2616474;46;20231;-73
2023/02/16 21:43:25;;;;;;;18.90;14.73;;;9.20;99.90;;;;;;2616413;54;20403;-73
2023/02/16 21:49:16;;;;;;;30.17;19.90;;;9.20;99.90;;;;;;2616157;54;20122;-74
2023/02/16 22:01:10;;;;;;;30.33;23.27;;;9.20;99.90;;;;;;2616087;54;20381;-74
2023/02/16 22:06:58;;;;;;;35.63;24.00;;;9.20;99.90;;;;;;2616017;54;20250;-73
2023/02/16 22:12:45;;;;;;;30.53;24.23;;;9.20;99.90;;;;;;2616070;54;20226;-72
2023/02/16 22:18:33;;;;;;;31.73;23.20;;;9.20;99.90;;;;;;2615756;54;20158;-71
2023/02/16 22:21:24;;;;;;;29.07;20.67;;;9.20;99.90;;;;;;2615211;54;20424;-74
2023/02/16 22:23:49;;;;;;;23.67;19.47;;;9.30;99.90;;;;;;2615401;54;20644;-75
2023/02/16 22:29:37;;;;;;;29.30;21.27;;;9.30;99.90;;;;;;2616008;54;20288;-73
2023/02/16 22:35:25;;;;;;;30.27;21.83;;;9.30;99.90;;;;;;2615836;54;20604;-73
2023/02/16 22:41:12;;;;;;;33.90;24.80;;;9.30;99.90;;;;;;2615800;54;20251;-73
2023/02/16 22:47:00;;;;;;;32.83;23.20;;;9.30;99.90;;;;;;2616046;54;20150;-73
2023/02/16 22:52:48;;;;;;;29.83;22.63;;;9.40;99.90;;;;;;2616029;54;20146;-73
2023/02/16 22:58:36;;;;;;;32.80;22.40;;;9.40;99.90;;;;;;2616044;54;20231;-73
2023/02/16 23:04:23;;;;;;;33.03;23.53;;;9.50;99.90;;;;;;2616198;54;20431;-73
2023/02/16 23:10:11;;;;;;;31.20;23.00;;;9.60;99.90;;;;;;2615913;54;20657;-73
2023/02/16 23:26:08;;;;;;;31.47;22.37;;;9.80;99.90;;;;;;2614291;54;20412;-74
2023/02/16 23:31:55;;;;;;;25.80;19.40;;;9.90;99.90;;;;;;2614560;54;20416;-73
2023/02/16 23:37:42;;;;;;;23.10;19.17;;;9.90;99.90;;;;;;2615210;54;20122;-74
2023/02/16 23:43:30;;;;;;;26.27;19.57;;;10.00;99.90;;;;;;2615226;54;20125;-74
2023/02/16 23:49:17;;;;;;;23.37;15.27;;;10.10;99.90;;;;;;2615102;54;20496;-73
2023/02/16 23:55:04;;;;;;;27.67;19.33;;;10.10;99.90;;;;;;2615607;54;20134;-73
